Flight Track Log - Related Links

Times and Time Zones

All times are in EDT time to prevent confusion due to time zone crossing. See the AWE1842 flight status page for this flight to view local times or setup timezone preferences in your user account.

Time Position Orientation Groundspeed Altitude Reporting Facility
EDT Latitude Longitude Course Direction KTS MPH feet Rate Location/Type
Sun 05:39:02 AM 28.4260 -81.3270 360° North 163 188  Level FlightAware ADS-B
Sun 05:39:42 AM 28.4530 -81.3170 18° North 167 192 2,000 2,618 Climbing FlightAware ADS-B
Sun 05:39:57 AM 28.4600 -81.3040 59° Northeast 198 228 2,400 1,950 Climbing FlightAware ADS-B
Sun 05:40:22 AM 28.4770 -81.2820 49° Northeast 227 261 3,300 2,700 Climbing FlightAware ADS-B
Sun 05:40:37 AM 28.4930 -81.2740 24° Northeast 245 282 4,200 3,000 Climbing FlightAware ADS-B
Sun 05:40:42 AM 28.4980 -81.2740 360° North 244 281 4,300 2,400 Climbing FlightAware ADS-B
Sun 05:41:07 AM 28.5270 -81.2810 348° North 271 312 5,400 3,360 Climbing FlightAware ADS-B
Sun 05:41:32 AM 28.5600 -81.2890 348° North 278 320 7,100 3,750 Climbing FlightAware ADS-B
Sun 05:41:47 AM 28.5790 -81.2930 350° North 277 319 7,900 3,333 Climbing FlightAware ADS-B
Sun 05:42:17 AM 28.6180 -81.3020 349° North 293 337 9,600 3,343 Climbing FlightAware ADS-B
Sun 05:42:57 AM 28.6740 -81.3120 351° North 311 358 11,800 3,176 Climbing FlightAware ADS-B
Sun 05:43:42 AM 28.7390 -81.3240 351° North 329 379 14,100 2,400 Climbing FlightAware ADS-B
Sun 05:44:22 AM 28.8040 -81.3370 350° North 375 432 15,200 1,875 Climbing FlightAware ADS-B
Sun 05:45:02 AM 28.8740 -81.3510 350° North 392 451 16,600 2,329 Climbing FlightAware ADS-B
Sun 05:45:47 AM 28.9600 -81.3450 North 410 472 18,500 2,612 Climbing FlightAware ADS-B
Sun 05:46:27 AM 29.0370 -81.3260 12° North 428 493 20,300 2,541 Climbing FlightAware ADS-B
Sun 05:47:12 AM 29.1190 -81.3060 12° North 425 489 22,100 2,400 Climbing FlightAware ADS-B
Sun 05:47:52 AM 29.2050 -81.2850 12° North 444 511 23,700 2,100 Climbing FlightAware ADS-B
Sun 05:48:32 AM 29.2830 -81.2660 12° North 447 514 24,900 1,341 Climbing FlightAware ADS-B
Sun 05:49:17 AM 29.3690 -81.2450 12° North 458 527 25,600 494 Climbing FlightAware ADS-B
Sun 05:49:57 AM 29.4390 -81.2280 12° North 458 527 25,600  Level FlightAware ADS-B
Sun 05:50:37 AM 29.5100 -81.2110 12° North 458 527 25,600  Level FlightAware ADS-B
Sun 05:51:17 AM 29.5800 -81.1940 12° North 458 527 25,600  Level FlightAware ADS-B
Sun 05:51:57 AM 29.6510 -81.1770 12° North 458 527 25,600  Level FlightAware ADS-B
Sun 05:52:47 AM 29.7390 -81.1550 12° North 458 527 25,600 5,855 Level FlightAware ADS-B
Sun 05:53:20 AM 29.9242 -81.1097 12° North 484 557 33,700 6,452 Climbing Jacksonville Center
Sun 05:54:20 AM 30.0594 -81.0783 11° North 484 557 35,600 1,600 Climbing Jacksonville Center
Sun 05:55:20 AM 30.1947 -81.0444 12° North 484 557 36,900 1,400 Climbing Jacksonville Center
Sun 05:56:20 AM 30.3258 -81.0131 12° North 484 557 38,400 1,050 Climbing Jacksonville Center
Sun 05:57:20 AM 30.4567 -80.9817 12° North 484 557 39,000 300 Climbing Jacksonville Center
Sun 05:58:20 AM 30.5836 -80.9500 12° North 484 557 39,000  Level Jacksonville Center
Sun 05:59:20 AM 30.7147 -80.9161 13° North 479 551 39,000  Level Jacksonville Center
Sun 06:05:07 AM 31.4760 -80.7230 13° North 496 571 39,000  Level FlightAware ADS-B
Sun 06:05:57 AM 31.5800 -80.6970 12° North 497 572 39,000  Level FlightAware ADS-B
Sun 06:06:42 AM 31.6900 -80.6690 12° North 497 572 39,000  Level FlightAware ADS-B
Sun 06:07:22 AM 31.7660 -80.6500 12° North 497 572 39,000  Level FlightAware ADS-B
Sun 06:08:02 AM 31.8430 -80.6310 12° North 497 572 39,000  Level FlightAware ADS-B
Sun 06:08:52 AM 31.9380 -80.6070 12° North 497 572 39,000  Level FlightAware ADS-B
Sun 06:09:32 AM 32.0150 -80.5880 12° North 497 572 39,000  Level FlightAware ADS-B
Sun 06:10:12 AM 32.0910 -80.5680 13° North 497 572 39,000  Level FlightAware ADS-B
Sun 06:11:12 AM 32.3000 -80.5120 13° North 498 573 39,000  Level FlightAware ADS-B
Sun 06:12:07 AM 32.4240 -80.4810 12° North 498 573 39,000  Level FlightAware ADS-B
Sun 06:12:47 AM 32.5150 -80.4570 13° North 499 574 39,000  Level FlightAware ADS-B
Sun 06:13:32 AM 32.6190 -80.4300 12° North 501 577 39,000  Level FlightAware ADS-B
Sun 06:14:12 AM 32.7090 -80.4060 13° North 501 577 39,000  Level FlightAware ADS-B
Sun 06:14:52 AM 32.8000 -80.3820 12° North 502 578 39,000 -141 Level FlightAware ADS-B
Sun 06:15:37 AM 32.8990 -80.3560 12° North 501 577 38,800 -1,059 Descending FlightAware ADS-B
Sun 06:16:17 AM 32.9910 -80.3320 12° North 498 573 37,500 -1,976 Descending FlightAware ADS-B
Sun 06:17:02 AM 33.0940 -80.3060 12° North 493 567 36,000 -2,047 Descending FlightAware ADS-B
Sun 06:17:42 AM 33.1810 -80.2830 12° North 487 560 34,600 -2,329 Descending FlightAware ADS-B
Sun 06:18:27 AM 33.2790 -80.2570 13° North 482 555 32,700 -2,612 Descending FlightAware ADS-B
Sun 06:19:07 AM 33.3670 -80.2340 12° North 482 555 30,900 -2,850 Descending FlightAware ADS-B
Sun 06:19:47 AM 33.4540 -80.2110 12° North 482 555 28,900 -2,682 Descending FlightAware ADS-B
Sun 06:20:32 AM 33.5500 -80.1850 13° North 472 543 27,100 -2,259 Descending FlightAware ADS-B
Sun 06:21:12 AM 33.6360 -80.1620 13° North 464 534 25,700 -1,482 Descending FlightAware ADS-B
Sun 06:21:57 AM 33.7260 -80.1280 17° North 466 536 25,000 -1,412 Descending FlightAware ADS-B
Sun 06:22:37 AM 33.8030 -80.0780 28° Northeast 468 539 23,700 -1,950 Descending FlightAware ADS-B
Sun 06:23:17 AM 33.8750 -80.0360 26° Northeast 458 527 22,400 -1,036 Descending FlightAware ADS-B
Sun 06:24:27 AM 33.9460 -80.0410 357° North 430 495 21,800 -574 Descending FlightAware ADS-B
Sun 06:25:12 AM 34.0950 -80.0740 350° North 428 493 21,300 -353 Descending FlightAware ADS-B
Sun 06:25:52 AM 34.1600 -80.0940 346° North 428 493 21,300  Level FlightAware ADS-B
Sun 06:26:32 AM 34.2250 -80.1130 346° North 428 493 21,300  Level FlightAware ADS-B
Sun 06:27:12 AM 34.2910 -80.1330 346° North 428 493 21,300  Level FlightAware ADS-B
Sun 06:27:52 AM 34.3560 -80.1530 346° North 428 493 21,300  Level FlightAware ADS-B
Sun 06:28:32 AM 34.4210 -80.1730 346° North 428 493 21,300 -6,689 Level FlightAware ADS-B
Sun 06:28:53 AM 34.4775 -80.2492 346° North 384 442 14,500 -11,550 Descending FAA TRACON SMA TRACON (SMA)
Sun 06:29:12 AM 34.5161 -80.2644 342° North 380 437 13,600 -2,400 Descending FAA TRACON SMA TRACON (SMA)
Sun 06:29:33 AM 34.5461 -80.2769 341° North 375 432 12,900 -2,250 Descending FAA TRACON SMA TRACON (SMA)
Sun 06:29:52 AM 34.5761 -80.2889 342° North 371 427 12,100 -2,154 Descending FAA TRACON SMA TRACON (SMA)
Sun 06:30:12 AM 34.6128 -80.3036 342° North 364 419 11,500 -1,024 Descending FAA TRACON SMA TRACON (SMA)
Sun 06:30:33 AM 34.6414 -80.3153 341° North 357 411 11,400 -450 Descending FAA TRACON SMA TRACON (SMA)
Sun 06:30:52 AM 34.6681 -80.3272 340° North 339 390 11,200 -600 Descending FAA TRACON SMA TRACON (SMA)
Sun 06:31:13 AM 34.6994 -80.3422 339° North 312 359 11,000 -300 Descending FAA TRACON SMA TRACON (SMA)
Sun 06:31:32 AM 34.7183 -80.3622 319° Northwest 301 346 11,000  Level FAA TRACON SMA TRACON (SMA)
Sun 06:31:52 AM 34.7361 -80.3839 315° West 298 343 11,000 -585 Level FAA TRACON SMA TRACON (SMA)
Sun 06:32:13 AM 34.7567 -80.4131 311° West 291 335 10,600 -1,200 Descending FAA TRACON SMA TRACON (SMA)
Sun 06:32:32 AM 34.7642 -80.4406 288° West 276 318 10,200 -1,050 Descending FAA TRACON SMA TRACON (SMA)
Sun 06:32:53 AM 34.7631 -80.4700 267° West 271 312 9,900 -1,050 Descending FAA TRACON SMA TRACON (SMA)
Sun 06:33:12 AM 34.7600 -80.4961 262° West 267 307 9,500 -1,800 Descending FAA TRACON SMA TRACON (SMA)
Sun 06:33:33 AM 34.7603 -80.5325 271° West 265 305 8,700 -1,756 Descending FAA TRACON SMA TRACON (SMA)
Sun 06:33:53 AM 34.7583 -80.5611 265° West 271 312 8,300 -1,231 Descending FAA TRACON SMA TRACON (SMA)
Sun 06:34:12 AM 34.7581 -80.5861 269° West 270 311 7,900 -1,650 Descending FAA TRACON SMA TRACON (SMA)
Sun 06:34:33 AM 34.7547 -80.6250 264° West 272 313 7,200 -1,950 Descending FAA TRACON SMA TRACON (SMA)
Sun 06:34:52 AM 34.7533 -80.6533 267° West 273 314 6,600 -1,650 Descending FAA TRACON SMA TRACON (SMA)
Sun 06:35:13 AM 34.7511 -80.6897 266° West 277 319 6,100 -900 Descending FAA TRACON SMA TRACON (SMA)
Sun 06:35:32 AM 34.7603 -80.7161 293° West 278 320 6,000 -154 Descending FAA TRACON SMA TRACON (SMA)
Sun 06:35:52 AM 34.7717 -80.7389 301° West 279 321 6,000  Level FAA TRACON SMA TRACON (SMA)
Sun 06:36:13 AM 34.7864 -80.7644 305° West 280 322 6,000  Level FAA TRACON SMA TRACON (SMA)
Sun 06:36:32 AM 34.8025 -80.7950 303° West 278 320 6,000  Level FAA TRACON SMA TRACON (SMA)
Sun 06:36:53 AM 34.8156 -80.8189 304° West 277 319 6,000  Level FAA TRACON SMA TRACON (SMA)
Sun 06:37:12 AM 34.8286 -80.8428 304° West 276 318 6,000  Level FAA TRACON SMA TRACON (SMA)
Sun 06:37:33 AM 34.8447 -80.8725 303° West 273 314 6,000  Level FAA TRACON SMA TRACON (SMA)
Sun 06:37:53 AM 34.8569 -80.8947 304° West 262 302 6,000  Level FAA TRACON SMA TRACON (SMA)
Sun 06:38:12 AM 34.8672 -80.9144 302° West 253 291 6,000 -150 Level FAA TRACON SMA TRACON (SMA)
Sun 06:38:33 AM 34.8789 -80.9347 305° West 204 235 5,900 -450 Descending FAA TRACON SMA TRACON (SMA)
Sun 06:38:52 AM 34.8914 -80.9519 312° West 193 222 5,700 -750 Descending FAA TRACON SMA TRACON (SMA)
Sun 06:39:13 AM 34.9067 -80.9536 355° North 178 205 5,400 -1,024 Descending FAA TRACON SMA TRACON (SMA)
Sun 06:39:33 AM 34.9236 -80.9461 20° North 167 192 5,000 -1,077 Descending FAA TRACON SMA TRACON (SMA)
Sun 06:39:52 AM 34.9372 -80.9392 23° Northeast 172 198 4,700 -900 Descending FAA TRACON SMA TRACON (SMA)
Sun 06:40:13 AM 34.9511 -80.9331 20° North 170 196 4,400 -1,050 Descending FAA TRACON SMA TRACON (SMA)
Sun 06:40:32 AM 34.9694 -80.9294 North 174 200 4,000 -600 Descending FAA TRACON SMA TRACON (SMA)
Sun 06:40:53 AM 34.9842 -80.9322 351° North 175 201 4,000  Level FAA TRACON SMA TRACON (SMA)
Sun 06:41:12 AM 34.9997 -80.9333 357° North 178 205 4,000  Level FAA TRACON SMA TRACON (SMA)
Sun 06:41:33 AM 35.0186 -80.9353 355° North 176 203 4,000  Level FAA TRACON SMA TRACON (SMA)
Sun 06:41:53 AM 35.0336 -80.9367 356° North 177 204 4,000 -462 Level FAA TRACON SMA TRACON (SMA)
Sun 06:42:12 AM 35.0489 -80.9381 356° North 177 204 3,700 -947 Descending FAA TRACON SMA TRACON (SMA)

Login

Don't have an account? Register now (free) for customized features, flight alerts, and more!